Time;durP1;ratioP1;P1;durP2;ratioP2;P2;SDS_P1;SDS_P2;PMS_P1;PMS_P2;Temp;Humidity;BMP_temperature;BMP_pressure;BME280_temperature;BME280_humidity;BME280_pressure;Samples;Min_cycle;Max_cycle;Signal;HPM_P1;HPM_P2
2023/04/19 00:01:30;;;;;;;2.03;1.70;;;;;;;19.02;32.94;102470.63;16119773;19;129503;-43
2023/04/19 00:06:51;;;;;;;2.17;1.65;;;;;;;18.99;33.30;102459.97;16120167;19;129963;-44
2023/04/19 00:12:13;;;;;;;2.00;1.80;;;;;;;18.97;32.95;102465.72;16117748;19;130030;-43
2023/04/19 00:17:35;;;;;;;2.33;1.40;;;;;;;18.95;33.11;102464.22;16118122;19;130926;-45
2023/04/19 00:22:58;;;;;;;1.85;1.60;;;;;;;18.95;33.42;102455.91;16121851;19;129352;-44
2023/04/19 00:28:19;;;;;;;2.38;1.90;;;;;;;18.91;33.39;102447.16;16120135;19;134020;-45
2023/04/19 00:33:41;;;;;;;2.45;1.88;;;;;;;18.90;32.98;102464.84;16117759;19;129706;-44
2023/04/19 00:39:03;;;;;;;2.20;1.80;;;;;;;18.88;33.00;102459.53;16119922;19;129508;-45
2023/04/19 00:44:25;;;;;;;2.28;1.92;;;;;;;18.86;32.95;102453.34;16122089;19;129680;-43
2023/04/19 00:49:47;;;;;;;2.50;2.30;;;;;;;18.86;32.94;102460.78;16120813;19;131040;-43
2023/04/19 00:55:09;;;;;;;2.20;1.95;;;;;;;18.83;33.09;102456.53;16117132;19;130508;-42
2023/04/19 01:00:31;;;;;;;2.40;2.20;;;;;;;18.83;32.92;102455.69;16122304;19;130139;-43
2023/04/19 01:05:54;;;;;;;2.30;1.90;;;;;;;18.81;33.41;102452.25;16118726;19;129350;-44
2023/04/19 01:11:15;;;;;;;1.90;1.70;;;;;;;18.77;33.01;102446.25;16120575;19;129442;-42
2023/04/19 01:16:38;;;;;;;3.50;1.90;;;;;;;18.76;33.32;102448.19;16119357;19;129783;-42
2023/04/19 01:22:01;;;;;;;2.78;1.90;;;;;;;18.75;33.20;102449.25;16121823;19;133612;-43
2023/04/19 01:27:23;;;;;;;2.63;1.67;;;;;;;18.74;33.38;102447.53;16114556;19;129722;-43
2023/04/19 01:32:45;;;;;;;1.60;1.50;;;;;;;18.73;33.43;102443.06;16114774;19;129615;-45
2023/04/19 01:38:07;;;;;;;2.28;1.65;;;;;;;18.71;33.34;102445.19;16117152;19;130738;-42
2023/04/19 01:43:29;;;;;;;1.83;1.65;;;;;;;18.70;33.15;102443.50;16113922;19;132619;-44
2023/04/19 01:48:51;;;;;;;1.80;1.70;;;;;;;18.69;33.45;102447.34;16111953;19;129736;-42
2023/04/19 01:54:13;;;;;;;3.78;1.80;;;;;;;18.68;33.34;102442.84;16112954;19;131254;-42
2023/04/19 01:59:35;;;;;;;2.08;1.75;;;;;;;18.67;33.34;102427.28;16111606;19;130294;-42
2023/04/19 02:04:57;;;;;;;3.13;2.10;;;;;;;18.67;33.44;102430.06;16114900;19;129577;-46
2023/04/19 02:10:19;;;;;;;2.45;2.25;;;;;;;18.65;33.34;102426.63;16107208;19;129794;-44
2023/04/19 02:15:41;;;;;;;2.85;1.83;;;;;;;18.64;33.12;102413.81;16113041;19;130127;-42
2023/04/19 02:21:04;;;;;;;1.70;1.60;;;;;;;18.64;33.55;102418.53;16114814;19;129593;-44
2023/04/19 02:26:26;;;;;;;1.98;1.75;;;;;;;18.61;33.12;102408.69;16110369;19;130350;-45
2023/04/19 02:31:48;;;;;;;1.90;1.52;;;;;;;18.61;33.36;102412.34;16106030;19;131788;-46
2023/04/19 02:37:10;;;;;;;2.50;1.83;;;;;;;18.60;33.47;102412.53;16111127;19;129342;-44
2023/04/19 02:42:32;;;;;;;2.60;1.63;;;;;;;18.58;33.55;102417.47;16110053;19;129540;-42
2023/04/19 02:47:54;;;;;;;1.92;1.65;;;;;;;18.58;33.27;102414.69;16105576;19;130013;-42
2023/04/19 02:53:16;;;;;;;2.40;1.80;;;;;;;18.57;33.38;102416.59;16109508;19;130060;-43
2023/04/19 02:58:38;;;;;;;1.63;1.52;;;;;;;18.56;33.31;102417.66;16117419;19;131608;-45
2023/04/19 03:04:00;;;;;;;2.15;1.95;;;;;;;18.55;33.57;102415.09;16124791;19;130635;-44
2023/04/19 03:09:21;;;;;;;2.65;2.33;;;;;;;18.52;33.57;102404.41;16124836;19;129803;-41
2023/04/19 03:14:44;;;;;;;3.08;1.73;;;;;;;18.52;33.70;102404.41;16128349;19;130098;-43
2023/04/19 03:20:10;;;;;;;3.35;1.80;;;;;;;18.51;33.32;102400.81;16126573;19;129678;-44
2023/04/19 03:25:32;;;;;;;2.45;1.98;;;;;;;18.49;33.35;102399.28;16125323;19;129983;-45
2023/04/19 03:30:54;;;;;;;3.15;2.20;;;;;;;18.48;33.39;102408.66;16119101;19;130513;-44
2023/04/19 03:36:16;;;;;;;2.47;2.10;;;;;;;18.48;33.79;102403.13;16125289;19;129515;-45
2023/04/19 03:41:39;;;;;;;2.40;1.98;;;;;;;18.46;33.79;102395.03;16123530;19;129324;-42
2023/04/19 03:47:01;;;;;;;2.25;2.05;;;;;;;18.46;33.42;102386.72;16127149;19;130171;-43
2023/04/19 03:52:24;;;;;;;2.90;2.40;;;;;;;18.44;33.86;102386.06;16126998;19;129665;-42
2023/04/19 03:57:46;;;;;;;3.28;2.80;;;;;;;18.43;33.68;102379.69;16126489;19;129790;-43
2023/04/19 04:03:08;;;;;;;3.10;2.28;;;;;;;18.42;33.91;102375.19;16124936;19;129511;-44
2023/04/19 04:08:30;;;;;;;2.85;2.28;;;;;;;18.40;33.66;102385.63;16119768;19;132179;-42
2023/04/19 04:13:53;;;;;;;2.60;2.03;;;;;;;18.40;33.81;102388.41;16122447;19;130400;-43
2023/04/19 04:19:16;;;;;;;2.53;2.28;;;;;;;18.38;33.92;102392.44;16124422;19;131040;-46
2023/04/19 04:24:40;;;;;;;3.00;2.60;;;;;;;18.36;33.54;102400.94;16123659;19;129598;-43
2023/04/19 04:30:02;;;;;;;3.08;2.50;;;;;;;18.35;33.56;102403.91;16121177;19;129871;-42
2023/04/19 04:35:25;;;;;;;3.05;2.65;;;;;;;18.35;33.87;102413.06;16123687;19;130712;-43
2023/04/19 04:40:52;;;;;;;2.88;2.20;;;;;;;18.35;33.98;102413.06;16121677;19;129762;-44
2023/04/19 04:46:14;;;;;;;2.42;1.90;;;;;;;18.33;33.70;102412.44;16118031;19;129448;-44
2023/04/19 04:51:36;;;;;;;3.40;2.47;;;;;;;18.31;33.68;102420.13;16121669;19;129439;-42
2023/04/19 04:56:58;;;;;;;3.17;2.40;;;;;;;18.30;34.04;102412.84;16119632;19;129979;-42
2023/04/19 05:02:21;;;;;;;2.70;2.22;;;;;;;18.29;33.63;102412.00;16121011;19;130303;-44
2023/04/19 05:07:43;;;;;;;2.60;1.52;;;;;;;18.32;33.66;102419.06;16116357;19;131099;-42
2023/04/19 05:13:05;;;;;;;2.03;1.70;;;;;;;18.64;33.75;102424.91;16120990;19;134368;-42
2023/04/19 05:18:26;;;;;;;2.85;1.60;;;;;;;19.00;33.51;102433.94;16116570;19;130600;-43
2023/04/19 05:23:48;;;;;;;4.78;2.28;;;;;;;19.21;33.48;102427.34;16110050;19;129644;-46
2023/04/19 05:29:10;;;;;;;3.10;2.30;;;;;;;19.33;32.96;102425.63;16115688;19;129969;-42
2023/04/19 05:34:32;;;;;;;3.90;2.25;;;;;;;19.36;33.22;102427.97;16116001;19;129680;-45
2023/04/19 05:39:54;;;;;;;4.72;2.58;;;;;;;19.34;32.95;102430.13;16117045;19;131378;-44
2023/04/19 05:45:17;;;;;;;5.78;2.63;;;;;;;19.30;33.20;102425.22;16118700;19;129397;-43
2023/04/19 05:50:39;;;;;;;5.82;2.78;;;;;;;19.25;33.07;102425.84;16113577;19;130899;-44
2023/04/19 05:56:01;;;;;;;6.03;2.63;;;;;;;19.18;33.58;102420.28;16116838;19;130114;-43
2023/04/19 06:01:23;;;;;;;3.13;2.15;;;;;;;19.13;33.50;102422.84;16117601;19;129578;-42
2023/04/19 06:06:45;;;;;;;5.60;3.08;;;;;;;19.07;33.36;102416.25;16113366;19;133162;-45
2023/04/19 06:12:06;;;;;;;5.97;2.63;;;;;;;19.02;33.73;102429.88;16115474;19;130440;-44
2023/04/19 06:17:29;;;;;;;3.67;2.30;;;;;;;18.98;33.93;102425.81;16116606;19;129644;-42
2023/04/19 06:22:52;;;;;;;6.05;2.90;;;;;;;18.97;33.70;102414.94;16111903;19;129485;-46
2023/04/19 06:28:14;;;;;;;7.03;2.53;;;;;;;18.94;34.03;102424.56;16113079;19;129441;-46
2023/04/19 06:33:35;;;;;;;7.93;2.80;;;;;;;18.98;34.00;102431.38;16111009;19;129529;-45
2023/04/19 06:38:57;;;;;;;5.68;2.70;;;;;;;19.01;33.95;102424.56;16117860;19;130593;-42
2023/04/19 06:44:19;;;;;;;6.25;3.53;;;;;;;19.03;33.87;102425.16;16112339;19;129718;-46
2023/04/19 06:49:41;;;;;;;10.18;3.70;;;;;;;19.09;33.72;102429.88;16117780;19;129853;-44
2023/04/19 06:55:05;;;;;;;10.00;4.18;;;;;;;19.19;33.79;102426.69;16115521;19;130032;-43
2023/04/19 07:00:26;;;;;;;13.43;3.53;;;;;;;19.35;33.64;102429.03;16115682;19;129666;-44
2023/04/19 07:05:50;;;;;;;12.23;3.30;;;;;;;19.50;34.09;102430.75;16114512;19;129678;-43
2023/04/19 07:11:12;;;;;;;11.55;3.70;;;;;;;19.68;33.82;102425.38;16113632;19;129349;-42
2023/04/19 07:16:34;;;;;;;13.13;3.00;;;;;;;19.82;33.23;102420.63;16112558;19;131000;-42
2023/04/19 07:21:56;;;;;;;11.73;2.75;;;;;;;19.90;33.04;102421.47;16112672;19;131110;-43
2023/04/19 07:27:18;;;;;;;9.35;2.70;;;;;;;19.95;33.00;102425.28;16110831;19;129678;-41
2023/04/19 07:32:40;;;;;;;6.93;2.95;;;;;;;19.97;33.04;102423.16;16111768;19;131388;-47
2023/04/19 07:38:02;;;;;;;7.07;2.45;;;;;;;19.98;32.87;102422.06;16113354;19;131239;-42
2023/04/19 07:43:24;;;;;;;5.45;2.38;;;;;;;19.99;32.93;102409.94;16117821;19;130951;-42
2023/04/19 07:48:46;;;;;;;4.80;2.40;;;;;;;19.99;32.65;102418.25;16129641;19;129522;-44
2023/04/19 07:54:09;;;;;;;12.80;2.25;;;;;;;19.98;32.80;102407.34;16127020;19;129240;-42
2023/04/19 07:59:32;;;;;;;5.63;2.30;;;;;;;19.97;32.55;102413.97;16123868;19;129085;-41
2023/04/19 08:04:54;;;;;;;2.47;1.70;;;;;;;19.99;32.82;102420.16;16125708;19;130333;-43
2023/04/19 08:10:17;;;;;;;5.43;2.10;;;;;;;19.97;32.47;102423.16;16122627;19;129300;-43
2023/04/19 08:15:39;;;;;;;3.45;2.03;;;;;;;19.97;32.50;102416.75;16125656;19;129536;-42
2023/04/19 08:21:04;;;;;;;5.73;2.20;;;;;;;19.96;32.38;102409.50;16127618;19;129472;-43
2023/04/19 08:26:26;;;;;;;2.33;1.40;;;;;;;19.96;32.38;102407.56;16124050;19;129710;-43
2023/04/19 08:31:48;;;;;;;3.00;1.83;;;;;;;19.94;32.17;102401.34;16123199;19;129423;-45
2023/04/19 08:37:10;;;;;;;2.25;1.70;;;;;;;19.95;32.17;102407.78;16123744;19;129346;-44
2023/04/19 08:42:32;;;;;;;2.08;1.70;;;;;;;19.94;32.58;102406.91;16126079;19;129249;-43
2023/04/19 08:47:58;;;;;;;7.45;2.10;;;;;;;19.91;32.51;102396.25;16121093;19;130350;-44
2023/04/19 08:53:23;;;;;;;4.53;1.85;;;;;;;19.89;32.23;102398.41;16124551;19;129738;-43
2023/04/19 08:58:46;;;;;;;2.92;1.73;;;;;;;19.88;32.33;102396.69;16120618;19;130076;-46
2023/04/19 09:04:11;;;;;;;6.13;1.70;;;;;;;19.87;32.28;102392.22;16124187;19;129535;-43
2023/04/19 09:09:36;;;;;;;3.90;2.07;;;;;;;19.84;32.38;102381.53;16123238;19;130304;-44
2023/04/19 09:15:12;;;;;;;;;;;;;;;19.80;32.33;102383.06;16122056;19;129565;-45
2023/04/19 09:20:37;;;;;;;2.95;1.70;;;;;;;19.82;32.10;102369.78;16123252;19;129403;-41
2023/04/19 09:26:00;;;;;;;;;;;;;;;19.75;32.18;102380.94;16121976;19;130668;-43
2023/04/19 09:31:28;;;;;;;2.40;1.80;;;;;;;19.74;32.54;102372.81;16119091;19;130871;-43
2023/04/19 09:37:12;;;;;;;2.72;1.70;;;;;;;19.71;32.26;102371.34;16115813;19;129912;-44
2023/04/19 09:42:54;;;;;;;2.45;1.80;;;;;;;19.65;32.19;102364.72;16115711;19;130373;-44
2023/04/19 09:48:36;;;;;;;3.25;1.98;;;;;;;19.60;32.53;102350.66;16119089;19;129587;-42
2023/04/19 09:53:58;;;;;;;2.33;1.77;;;;;;;19.57;32.17;102350.22;16120323;19;129386;-44
2023/04/19 09:59:20;;;;;;;2.90;1.73;;;;;;;19.52;32.28;102353.66;16118821;19;135509;-44
2023/04/19 10:04:42;;;;;;;2.13;1.60;;;;;;;19.51;32.71;102349.19;16115353;19;130574;-46
2023/04/19 10:10:10;;;;;;;2.38;1.65;;;;;;;19.49;32.74;102343.00;16115909;19;129385;-42
2023/04/19 10:15:45;;;;;;;4.10;1.95;;;;;;;19.44;32.35;102335.31;16118332;19;129569;-45
2023/04/19 10:21:27;;;;;;;5.80;2.20;;;;;;;19.41;32.84;102344.06;16116710;19;135744;-43
2023/04/19 10:27:10;;;;;;;3.10;1.80;;;;;;;19.38;32.55;102328.72;16116835;19;129615;-42
2023/04/19 10:32:40;;;;;;;5.50;1.83;;;;;;;19.36;33.00;102328.06;16114753;19;129983;-42
2023/04/19 10:38:15;;;;;;;3.03;1.80;;;;;;;19.34;32.93;102330.22;16115595;19;129332;-43
2023/04/19 10:43:38;;;;;;;2.20;1.95;;;;;;;19.30;32.59;102325.31;16113630;19;130480;-44
2023/04/19 10:49:01;;;;;;;5.43;1.90;;;;;;;19.26;32.67;102324.91;16115163;19;134455;-43
2023/04/19 10:54:31;;;;;;;2.05;1.73;;;;;;;19.24;32.56;102306.78;16115220;19;129631;-44
2023/04/19 11:00:24;;;;;;;2.20;1.80;;;;;;;19.20;32.47;102317.44;16113470;19;131407;-43
2023/04/19 11:06:15;;;;;;;3.08;2.00;;;;;;;19.19;32.46;102299.91;16113051;19;131096;-44
2023/04/19 11:11:37;;;;;;;5.88;2.05;;;;;;;19.16;32.50;102296.72;16110670;19;129902;-42
2023/04/19 11:17:01;;;;;;;4.10;1.73;;;;;;;19.13;32.38;102298.03;16114702;19;129126;-43
2023/04/19 11:22:36;;;;;;;2.67;1.98;;;;;;;19.13;32.14;102289.69;16129200;19;131263;-43
2023/04/19 11:27:59;;;;;;;4.40;1.83;;;;;;;19.09;32.09;102288.41;16125610;19;129686;-43
2023/04/19 11:33:24;;;;;;;5.80;2.35;;;;;;;19.10;31.58;102278.16;16128884;19;129209;-44
2023/04/19 11:38:47;;;;;;;3.42;1.80;;;;;;;19.08;31.60;102275.63;16128029;19;131954;-44
2023/04/19 11:44:27;;;;;;;2.80;1.90;;;;;;;19.07;31.73;102285.88;16126948;19;129373;-43
2023/04/19 11:49:49;;;;;;;3.90;1.60;;;;;;;19.03;31.08;102276.25;16128161;19;129580;-41
2023/04/19 11:55:17;;;;;;;3.28;1.48;;;;;;;19.03;30.84;102281.81;16126545;19;129571;-42
2023/04/19 12:00:45;;;;;;;2.97;1.75;;;;;;;19.02;30.60;102265.38;16125332;19;131649;-44
2023/04/19 12:06:17;;;;;;;2.42;1.50;;;;;;;19.00;31.11;102265.59;16127870;19;130224;-42
2023/04/19 12:11:48;;;;;;;2.38;1.60;;;;;;;19.01;30.54;102270.06;16125499;19;129969;-41
2023/04/19 12:17:15;;;;;;;2.75;1.60;;;;;;;18.98;30.46;102266.91;16127709;19;129498;-43
2023/04/19 12:22:37;;;;;;;2.75;1.30;;;;;;;18.97;30.68;102268.78;16123769;19;132198;-46
2023/04/19 12:28:02;;;;;;;2.22;1.00;;;;;;;18.98;30.79;102264.13;16122294;19;130190;-46
2023/04/19 12:33:24;;;;;;;5.57;1.20;;;;;;;18.98;30.26;102266.91;16125297;19;129498;-47
2023/04/19 12:38:46;;;;;;;1.42;1.15;;;;;;;18.95;30.05;102248.78;16116456;19;131233;-41
2023/04/19 12:44:08;;;;;;;3.05;1.40;;;;;;;18.95;30.30;102251.53;16121761;19;130000;-42
2023/04/19 12:49:30;;;;;;;3.75;1.10;;;;;;;18.94;29.82;102252.63;16122880;19;129681;-42
2023/04/19 12:54:52;;;;;;;3.28;1.05;;;;;;;18.92;29.23;102238.09;16119952;19;131216;-44
2023/04/19 13:00:14;;;;;;;2.60;1.33;;;;;;;;;;16118598;19;130247;-43
2023/04/19 13:05:36;;;;;;;3.15;1.08;;;;;;;18.87;29.10;102232.34;16121346;19;129853;-42
2023/04/19 13:10:58;;;;;;;3.75;1.10;;;;;;;18.87;28.99;102224.91;16120233;19;130550;-43
2023/04/19 13:16:21;;;;;;;2.00;0.80;;;;;;;18.86;28.80;102219.53;16121679;19;130795;-41
2023/04/19 13:21:43;;;;;;;1.25;0.80;;;;;;;18.85;28.98;102210.38;16120201;19;129576;-41
2023/04/19 13:27:05;;;;;;;1.38;0.75;;;;;;;18.85;28.50;102204.84;16121178;19;131300;-41
2023/04/19 13:32:29;;;;;;;1.75;0.80;;;;;;;18.86;28.21;102200.13;16117942;19;129759;-44
2023/04/19 13:37:51;;;;;;;1.63;0.80;;;;;;;18.80;27.74;102196.31;16118770;19;129309;-42
2023/04/19 13:43:13;;;;;;;3.17;1.08;;;;;;;18.84;27.57;102174.53;16116943;19;130699;-43
2023/04/19 13:48:35;;;;;;;1.65;0.80;;;;;;;18.85;27.65;102174.34;16118583;19;129388;-41
2023/04/19 13:53:57;;;;;;;5.78;1.00;;;;;;;18.86;27.02;102173.28;16117362;19;130534;-44
2023/04/19 13:59:20;;;;;;;2.13;1.00;;;;;;;18.95;26.68;102160.03;16118008;19;129352;-43
2023/04/19 14:04:42;;;;;;;3.13;0.70;;;;;;;19.05;26.75;102159.56;16117308;19;129576;-42
2023/04/19 14:10:06;;;;;;;1.80;0.73;;;;;;;19.16;26.47;102160.78;16115948;19;129336;-43
2023/04/19 14:15:27;;;;;;;5.07;0.95;;;;;;;19.22;26.34;102154.38;16116788;19;129809;-42
2023/04/19 14:20:49;;;;;;;1.67;0.70;;;;;;;19.25;26.07;102136.47;16116115;19;129459;-45
2023/04/19 14:26:11;;;;;;;3.50;0.90;;;;;;;19.24;26.03;102135.59;16115222;19;129652;-45
2023/04/19 14:31:33;;;;;;;2.30;0.85;;;;;;;19.22;25.83;102133.06;16115481;19;130033;-43
2023/04/19 14:36:55;;;;;;;1.05;0.73;;;;;;;19.20;25.96;102128.78;16114722;19;129368;-43
2023/04/19 14:42:18;;;;;;;5.20;0.98;;;;;;;19.14;26.42;102129.66;16112438;19;129825;-42
2023/04/19 14:47:43;;;;;;;1.90;0.90;;;;;;;19.07;26.39;102130.53;16112584;19;131530;-42
2023/04/19 14:53:05;;;;;;;4.72;1.20;;;;;;;19.02;26.03;102124.78;16120039;19;132429;-44
2023/04/19 14:58:27;;;;;;;3.47;1.15;;;;;;;18.99;25.85;102113.28;16131417;19;130514;-44
2023/04/19 15:03:49;;;;;;;3.28;1.00;;;;;;;18.97;25.78;102112.66;16129108;19;129848;-45
2023/04/19 15:09:11;;;;;;;4.68;1.17;;;;;;;18.94;25.89;102113.09;16128408;19;129298;-48
2023/04/19 15:14:34;;;;;;;1.63;1.08;;;;;;;18.91;25.45;102100.53;16128883;19;129689;-55
2023/04/19 15:19:57;;;;;;;4.22;1.30;;;;;;;18.89;25.30;102089.63;16130507;19;131728;-51
2023/04/19 15:25:19;;;;;;;10.20;1.38;;;;;;;18.88;25.55;102087.09;16133558;19;129497;-53
2023/04/19 15:30:41;;;;;;;7.18;1.20;;;;;;;18.85;25.70;102079.19;16128862;19;129678;-48
2023/04/19 15:36:03;;;;;;;3.00;1.33;;;;;;;18.82;25.73;102091.59;16129785;19;129537;-50
2023/04/19 15:41:25;;;;;;;2.28;1.30;;;;;;;18.81;25.85;102076.03;16124720;19;132459;-50
2023/04/19 15:46:46;;;;;;;3.88;1.10;;;;;;;18.79;26.14;102083.72;16123424;19;130976;-53
2023/04/19 15:52:08;;;;;;;2.85;1.40;;;;;;;18.76;26.04;102082.22;16122094;19;129634;-42
2023/04/19 15:57:30;;;;;;;8.50;1.48;;;;;;;18.76;26.75;102075.84;16126700;19;130576;-49
2023/04/19 16:02:52;;;;;;;3.47;1.48;;;;;;;18.74;25.82;102081.59;16121317;19;129550;-51
2023/04/19 16:08:18;;;;;;;2.85;1.20;;;;;;;18.70;26.09;102080.34;16112703;19;129711;-58
2023/04/19 16:13:39;;;;;;;6.78;1.30;;;;;;;18.71;26.41;102076.47;16087675;19;133273;-44
2023/04/19 16:19:01;;;;;;;5.03;1.40;;;;;;;18.72;26.79;102072.66;16098412;19;129707;-47
2023/04/19 16:24:23;;;;;;;2.88;1.23;;;;;;;18.73;26.45;102074.34;16104557;19;130935;-52
2023/04/19 16:29:45;;;;;;;3.65;1.00;;;;;;;18.73;26.86;102074.34;16115092;19;130719;-48
2023/04/19 16:35:07;;;;;;;1.60;1.10;;;;;;;18.73;27.12;102066.03;16113523;19;130315;-41
2023/04/19 16:40:29;;;;;;;2.88;1.05;;;;;;;18.85;27.23;102062.56;16122257;19;131246;-41
2023/04/19 16:45:52;;;;;;;3.10;1.00;;;;;;;19.13;27.49;102069.69;16112902;19;129566;-44
2023/04/19 16:51:14;;;;;;;3.40;0.80;;;;;;;19.48;27.30;102080.38;16111788;19;130466;-42
2023/04/19 16:56:36;;;;;;;3.53;1.00;;;;;;;19.84;27.37;102068.59;16119104;19;132452;-42
2023/04/19 17:01:57;;;;;;;1.85;0.85;;;;;;;20.04;27.24;102059.25;16113180;19;131037;-44
2023/04/19 17:07:23;;;;;;;5.53;0.93;;;;;;;20.17;27.31;102054.63;16107869;19;129513;-42
2023/04/19 17:12:45;;;;;;;3.63;0.80;;;;;;;20.19;27.23;102046.94;16120874;19;133150;-42
2023/04/19 17:18:07;;;;;;;4.55;1.30;;;;;;;20.18;27.16;102045.22;16112193;19;131653;-43
2023/04/19 17:23:29;;;;;;;3.08;0.90;;;;;;;20.10;27.20;102052.78;16115439;19;130423;-42
2023/04/19 17:28:51;;;;;;;4.43;1.45;;;;;;;20.04;27.56;102055.63;16114070;19;129907;-42
2023/04/19 17:34:13;;;;;;;2.78;1.00;;;;;;;19.94;27.14;102062.50;16120032;19;129752;-45
2023/04/19 17:39:35;;;;;;;7.45;1.80;;;;;;;19.87;27.37;102061.72;16118636;19;130347;-45
2023/04/19 17:44:57;;;;;;;3.45;1.35;;;;;;;19.79;27.15;102059.25;16115320;19;130074;-43
2023/04/19 17:50:20;;;;;;;2.90;1.15;;;;;;;19.71;27.17;102054.81;16115066;19;130440;-45
2023/04/19 17:55:41;;;;;;;6.25;1.45;;;;;;;19.62;27.21;102065.34;16116603;19;129970;-43
2023/04/19 18:01:05;;;;;;;3.40;1.20;;;;;;;19.64;27.78;102068.75;16115414;19;129306;-41
2023/04/19 18:06:27;;;;;;;7.68;1.17;;;;;;;19.75;27.87;102057.97;16105474;19;129811;-42
2023/04/19 18:11:49;;;;;;;6.18;1.10;;;;;;;19.87;27.84;102060.88;16115290;19;129407;-40
2023/04/19 18:17:13;;;;;;;8.07;1.17;;;;;;;20.01;27.76;102056.09;16112637;19;132013;-44
2023/04/19 18:22:36;;;;;;;3.95;1.10;;;;;;;20.12;28.28;102060.88;16110665;19;131311;-44
2023/04/19 18:27:58;;;;;;;1.30;0.90;;;;;;;20.21;28.19;102061.44;16111376;19;131218;-41
2023/04/19 18:33:21;;;;;;;5.13;1.00;;;;;;;20.29;27.87;102059.22;16113734;19;133413;-41
2023/04/19 18:38:45;;;;;;;3.80;0.90;;;;;;;20.36;28.28;102072.19;16111297;19;129588;-45
2023/04/19 18:44:07;;;;;;;4.53;0.80;;;;;;;20.41;28.11;102069.56;16111547;19;131108;-44
2023/04/19 18:49:32;;;;;;;1.07;0.67;;;;;;;20.45;28.12;102068.88;16109099;19;130806;-42
2023/04/19 18:54:57;;;;;;;1.83;0.68;;;;;;;20.52;28.40;102073.50;16114132;19;130703;-42
2023/04/19 19:00:20;;;;;;;1.23;0.73;;;;;;;20.68;28.22;102077.59;16114080;19;131575;-43
2023/04/19 19:05:42;;;;;;;1.40;0.70;;;;;;;20.97;28.37;102080.69;16110437;19;129882;-43
2023/04/19 19:11:05;;;;;;;2.08;0.80;;;;;;;21.26;28.26;102089.28;16113662;19;129543;-44
2023/04/19 19:16:47;;;;;;;4.10;0.80;;;;;;;21.52;27.78;102094.50;16110578;19;130725;-43
2023/04/19 19:22:13;;;;;;;3.70;0.82;;;;;;;21.76;27.65;102107.63;16110288;19;130460;-44
2023/04/19 19:27:52;;;;;;;0.70;0.55;;;;;;;21.85;27.95;102099.75;16109763;19;130597;-43
2023/04/19 19:33:18;;;;;;;1.02;0.70;;;;;;;21.85;27.54;102096.97;16110160;19;129963;-44
2023/04/19 19:38:40;;;;;;;1.17;0.57;;;;;;;21.88;28.20;102108.47;16109992;19;130508;-44
2023/04/19 19:44:01;;;;;;;1.35;0.52;;;;;;;21.94;27.98;102106.69;16125271;19;129766;-47
2023/04/19 19:49:23;;;;;;;0.82;0.50;;;;;;;21.94;28.12;102115.03;16124814;19;129659;-43
2023/04/19 19:54:45;;;;;;;0.70;0.50;;;;;;;21.94;28.04;102115.03;16125255;19;130604;-44
2023/04/19 20:00:13;;;;;;;1.08;0.45;;;;;;;21.92;28.20;102114.41;16125047;19;130164;-44
2023/04/19 20:05:54;;;;;;;1.75;0.30;;;;;;;21.88;28.25;102118.78;16122985;19;130986;-46
2023/04/19 20:11:17;;;;;;;1.70;0.43;;;;;;;21.76;28.41;102122.41;16124064;19;131036;-43
2023/04/19 20:16:39;;;;;;;1.02;0.57;;;;;;;21.64;28.55;102130.72;16126826;19;129710;-48
2023/04/19 20:22:01;;;;;;;2.00;0.40;;;;;;;21.49;28.58;102127.50;16121571;19;130715;-60
2023/04/19 20:27:23;;;;;;;4.65;0.80;;;;;;;21.33;28.11;102120.66;16119173;19;130518;-46
2023/04/19 20:32:47;;;;;;;3.90;0.73;;;;;;;21.17;27.99;102131.34;16120708;19;131544;-45
2023/04/19 20:38:09;;;;;;;5.28;1.08;;;;;;;21.09;28.33;102130.84;16114864;19;130101;-46
2023/04/19 20:43:31;;;;;;;5.28;1.00;;;;;;;20.98;28.32;102132.47;16114657;19;131295;-45
2023/04/19 20:48:54;;;;;;;12.88;1.33;;;;;;;20.85;28.28;102128.75;16118318;19;131010;-47
2023/04/19 20:54:17;;;;;;;6.18;1.20;;;;;;;20.75;28.28;102122.88;16113117;19;129697;-47
2023/04/19 20:59:39;;;;;;;15.02;1.45;;;;;;;20.68;28.15;102135.97;16120217;19;130384;-50
2023/04/19 21:05:02;;;;;;;5.93;1.00;;;;;;;20.62;28.23;102134.97;16121607;19;129218;-46
2023/04/19 21:10:24;;;;;;;2.75;0.70;;;;;;;20.55;28.66;102135.06;16120471;19;131055;-45
2023/04/19 21:15:45;;;;;;;2.17;0.65;;;;;;;20.49;28.68;102130.41;16117405;19;130889;-47
2023/04/19 21:21:08;;;;;;;12.65;1.20;;;;;;;20.44;28.58;102133.03;16119616;19;131027;-48
2023/04/19 21:26:30;;;;;;;10.90;1.30;;;;;;;20.38;28.76;102128.38;16116776;19;130556;-48
2023/04/19 21:31:52;;;;;;;7.30;1.10;;;;;;;20.35;28.93;102128.84;16117196;19;129238;-47
2023/04/19 21:37:15;;;;;;;8.00;0.98;;;;;;;20.27;28.79;102133.63;16114317;19;130203;-46
2023/04/19 21:42:37;;;;;;;6.78;1.20;;;;;;;20.18;28.87;102129.44;16116714;19;129664;-47
2023/04/19 21:47:59;;;;;;;6.95;1.00;;;;;;;20.10;29.23;102132.50;16116771;19;130942;-49
2023/04/19 21:53:20;;;;;;;6.82;0.90;;;;;;;20.02;29.14;102141.13;16116883;19;131634;-46
2023/04/19 21:58:42;;;;;;;2.92;1.00;;;;;;;19.96;28.98;102142.84;16118616;19;129746;-45
2023/04/19 22:04:04;;;;;;;5.35;1.15;;;;;;;19.89;28.63;102140.13;16115009;19;130276;-48
2023/04/19 22:09:27;;;;;;;3.67;0.90;;;;;;;19.82;28.74;102136.50;16113527;19;129778;-49
2023/04/19 22:14:50;;;;;;;5.07;0.70;;;;;;;19.77;28.98;102145.53;16114247;19;130002;-49
2023/04/19 22:20:11;;;;;;;2.47;0.90;;;;;;;19.72;28.66;102144.50;16115753;19;130924;-46
2023/04/19 22:25:33;;;;;;;4.75;0.98;;;;;;;19.63;28.84;102150.34;16115532;19;130774;-46
2023/04/19 22:30:55;;;;;;;2.95;0.98;;;;;;;19.58;28.96;102139.03;16113138;19;130463;-46
2023/04/19 22:36:17;;;;;;;2.95;1.10;;;;;;;19.52;28.74;102135.22;16115842;19;130386;-46
2023/04/19 22:41:39;;;;;;;2.25;1.02;;;;;;;19.49;28.93;102130.16;16117101;19;129271;-45
2023/04/19 22:47:02;;;;;;;5.07;1.00;;;;;;;19.45;28.66;102136.34;16114466;19;129504;-46
2023/04/19 22:52:24;;;;;;;1.17;0.75;;;;;;;19.40;28.67;102127.84;16114648;19;130511;-48
2023/04/19 22:57:46;;;;;;;2.25;1.00;;;;;;;19.35;28.66;102125.75;16116808;19;130133;-48
2023/04/19 23:03:08;;;;;;;1.75;0.90;;;;;;;19.32;28.31;102115.06;16111589;19;129456;-45
2023/04/19 23:08:32;;;;;;;5.30;1.02;;;;;;;19.27;28.50;102121.28;16113549;19;131432;-45
2023/04/19 23:13:54;;;;;;;2.28;1.00;;;;;;;19.23;28.67;102122.81;16114677;19;129649;-46
2023/04/19 23:19:16;;;;;;;3.03;1.00;;;;;;;19.20;28.66;102114.91;16126205;19;129845;-48
2023/04/19 23:24:38;;;;;;;1.27;0.90;;;;;;;19.16;28.64;102122.81;16129144;19;130891;-46
2023/04/19 23:30:02;;;;;;;2.25;1.00;;;;;;;19.14;28.52;102118.56;16125794;19;130402;-46
2023/04/19 23:35:24;;;;;;;3.20;1.10;;;;;;;19.11;28.53;102113.44;16124568;19;130429;-48
2023/04/19 23:40:46;;;;;;;1.08;0.80;;;;;;;19.10;28.39;102111.72;16123824;19;129765;-47
2023/04/19 23:46:08;;;;;;;1.42;1.08;;;;;;;19.05;28.63;102107.72;16126310;19;129869;-48
2023/04/19 23:51:31;;;;;;;3.05;1.00;;;;;;;19.03;28.22;102109.84;16122889;19;129748;-46
2023/04/19 23:56:54;;;;;;;2.88;0.80;;;;;;;19.00;28.59;102103.91;16122907;19;129597;-48
